Time;durP1;ratioP1;P1;durP2;ratioP2;P2;SDS_P1;SDS_P2;PMS_P1;PMS_P2;Temp;Humidity;BMP_temperature;BMP_pressure;BME280_temperature;BME280_humidity;BME280_pressure;Samples;Min_cycle;Max_cycle;Signal;HPM_P1;HPM_P2
2022/04/05 00:00:17;;;;;;;24.70;3.28;;;;;;;3.75;100.00;99740.22;4945635;28;20580;-76
2022/04/05 00:02:43;;;;;;;30.60;3.20;;;;;;;3.68;100.00;99739.91;4966946;28;20039;-77
2022/04/05 00:05:08;;;;;;;17.25;2.58;;;;;;;3.69;100.00;99743.31;4951622;28;20042;-77
2022/04/05 00:07:34;;;;;;;27.33;2.70;;;;;;;3.71;100.00;99746.59;4966187;28;20058;-76
2022/04/05 00:10:08;;;;;;;30.42;3.13;;;;;;;3.78;100.00;99745.16;4939099;28;20068;-76
2022/04/05 00:12:41;;;;;;;23.20;3.13;;;;;;;3.50;100.00;99715.47;4957383;28;20030;-77
2022/04/05 00:15:09;;;;;;;22.73;3.10;;;;;;;3.66;100.00;99715.06;4937487;28;20048;-77
2022/04/05 00:17:36;;;;;;;30.48;3.28;;;;;;;3.70;100.00;99721.63;4935409;28;20046;-77
2022/04/05 00:20:10;;;;;;;24.30;2.78;;;;;;;3.79;100.00;99762.38;4938874;28;20050;-77
2022/04/05 00:22:42;;;;;;;27.73;3.28;;;;;;;3.53;100.00;99715.25;4938449;28;20046;-78
2022/04/05 00:25:08;;;;;;;23.10;2.47;;;;;;;3.84;100.00;99770.59;4952129;28;20051;-76
2022/04/05 00:27:36;;;;;;;28.75;3.63;;;;;;;3.64;100.00;99719.56;4962357;28;20062;-78
2022/04/05 00:30:03;;;;;;;25.73;2.30;;;;;;;4.05;100.00;99751.56;4954824;28;20050;-76
2022/04/05 00:32:29;;;;;;;15.18;2.47;;;;;;;3.78;100.00;99726.19;4948570;28;20047;-77
2022/04/05 00:34:58;;;;;;;17.17;2.75;;;;;;;3.91;100.00;99742.34;4963409;28;20039;-76
2022/04/05 00:37:24;;;;;;;25.10;2.78;;;;;;;3.82;100.00;99718.00;4950850;28;20239;-75
2022/04/05 00:39:50;;;;;;;17.80;2.38;;;;;;;3.82;100.00;99717.19;4952729;28;20081;-76
2022/04/05 00:42:17;;;;;;;28.40;2.90;;;;;;;3.80;100.00;99716.50;4935357;28;20055;-76
2022/04/05 00:44:56;;;;;;;20.63;2.30;;;;;;;3.86;100.00;99732.38;4951155;28;20500;-76
2022/04/05 00:47:26;;;;;;;19.13;2.33;;;;;;;3.74;100.00;99722.19;4941240;28;20505;-77
2022/04/05 00:49:56;;;;;;;29.50;3.17;;;;;;;3.58;100.00;99717.44;4947942;28;20786;-75
2022/04/05 00:52:28;;;;;;;20.02;2.80;;;;;;;3.79;100.00;99769.34;4934172;28;20043;-76
2022/04/05 00:54:54;;;;;;;20.92;2.85;;;;;;;3.68;100.00;99760.66;4945382;28;20051;-76
2022/04/05 00:57:21;;;;;;;21.30;2.92;;;;;;;3.66;100.00;99752.19;4915274;28;20047;-77
2022/04/05 00:59:49;;;;;;;22.60;2.97;;;;;;;3.58;100.00;99739.03;4948427;28;20497;-77
2022/04/05 01:02:18;;;;;;;22.00;2.60;;;;;;;3.69;100.00;99759.72;4947261;28;20230;-75
2022/04/05 01:04:45;;;;;;;19.88;2.25;;;;;;;3.67;100.00;99763.38;4965571;28;20042;-77
2022/04/05 01:07:22;;;;;;;17.60;2.00;;;;;;;3.57;100.00;99765.09;4931812;28;20043;-76
2022/04/05 01:09:53;;;;;;;18.77;2.13;;;;;;;3.65;100.00;99760.06;4942475;28;20519;-76
2022/04/05 01:12:20;;;;;;;18.33;2.42;;;;;;;3.78;100.00;99770.28;4951322;28;20030;-77
2022/04/05 01:14:47;;;;;;;17.80;2.20;;;;;;;3.85;100.00;99766.22;4956661;28;20381;-76
2022/04/05 01:17:13;;;;;;;20.05;2.30;;;;;;;3.86;100.00;99776.47;4933888;28;20046;-78
2022/04/05 01:19:39;;;;;;;18.52;2.05;;;;;;;3.74;100.00;99774.88;4945340;28;20050;-79
2022/04/05 01:22:05;;;;;;;16.17;1.65;;;;;;;3.70;100.00;99766.53;4966682;28;20574;-77
2022/04/05 01:24:32;;;;;;;21.25;2.15;;;;;;;3.76;100.00;99773.00;4955266;28;20073;-76
2022/04/05 01:27:01;;;;;;;12.63;1.75;;;;;;;3.67;100.00;99782.38;4964937;28;20047;-76
2022/04/05 01:29:27;;;;;;;14.45;1.92;;;;;;;3.67;100.00;99772.00;4932115;28;20118;-76
2022/04/05 01:31:56;;;;;;;19.38;2.10;;;;;;;3.62;100.00;99778.50;4924722;29;20043;-76
2022/04/05 01:34:24;;;;;;;16.83;2.45;;;;;;;3.58;100.00;99783.13;4942982;28;20460;-76
2022/04/05 01:36:52;;;;;;;20.02;2.13;;;;;;;3.60;100.00;99780.38;4952310;28;20126;-77
2022/04/05 01:39:20;;;;;;;13.70;1.70;;;;;;;3.67;100.00;99776.34;4951014;28;20035;-76
2022/04/05 01:41:51;;;;;;;15.65;2.10;;;;;;;3.62;100.00;99786.28;4950954;28;20034;-76
2022/04/05 01:44:17;;;;;;;17.00;2.20;;;;;;;3.73;100.00;99790.56;4949893;28;20030;-75
2022/04/05 01:46:42;;;;;;;15.02;1.63;;;;;;;3.69;100.00;99790.84;4936593;28;20042;-76
2022/04/05 01:49:10;;;;;;;17.35;1.90;;;;;;;3.48;100.00;99798.59;4969153;28;20160;-77
2022/04/05 01:51:37;;;;;;;12.63;1.85;;;;;;;3.31;100.00;99799.94;4935702;28;20050;-77
2022/04/05 01:54:05;;;;;;;19.63;2.78;;;;;;;3.28;100.00;99801.97;4934323;28;20081;-78
2022/04/05 01:56:40;;;;;;;19.88;2.83;;;;;;;3.20;100.00;99786.19;4969463;28;20159;-77
2022/04/05 01:59:05;;;;;;;21.73;3.33;;;;;;;3.23;100.00;99783.34;4968910;28;20034;-77
2022/04/05 02:01:31;;;;;;;26.42;3.30;;;;;;;3.16;100.00;99792.56;4952030;28;20404;-77
2022/04/05 02:03:57;;;;;;;18.42;2.22;;;;;;;3.01;100.00;99797.19;4967301;28;20030;-77
2022/04/05 02:06:23;;;;;;;18.05;2.55;;;;;;;2.87;100.00;99793.91;4950423;28;20809;-76
2022/04/05 02:08:49;;;;;;;18.35;2.60;;;;;;;2.72;100.00;99782.16;4967526;28;20027;-76
2022/04/05 02:11:15;;;;;;;15.57;2.33;;;;;;;2.71;100.00;99794.31;4966861;28;20039;-77
2022/04/05 02:13:43;;;;;;;14.60;2.10;;;;;;;2.79;100.00;99788.53;4965273;28;20042;-77
2022/04/05 02:16:09;;;;;;;15.45;2.22;;;;;;;2.78;100.00;99796.41;4948952;28;20043;-76
2022/04/05 02:18:36;;;;;;;19.92;2.92;;;;;;;2.77;100.00;99793.00;4936409;28;20038;-76
2022/04/05 02:21:03;;;;;;;27.77;2.53;;;;;;;2.93;100.00;99796.03;4934979;28;20049;-77
2022/04/05 02:23:30;;;;;;;20.33;1.90;;;;;;;2.90;100.00;99803.19;4965677;28;20050;-76
2022/04/05 02:26:12;;;;;;;16.70;2.28;;;;;;;2.91;100.00;99802.28;4964521;28;20031;-77
2022/04/05 02:28:43;;;;;;;17.13;2.22;;;;;;;2.88;100.00;99799.91;4972434;28;20038;-76
2022/04/05 02:31:13;;;;;;;16.40;3.10;;;;;;;2.83;100.00;99791.69;4967229;28;20050;-76
2022/04/05 02:33:39;;;;;;;21.33;2.15;;;;;;;2.87;100.00;99808.66;4948418;28;20039;-77
2022/04/05 02:36:12;;;;;;;30.88;2.33;;;;;;;2.93;100.00;99810.75;4951882;28;20130;-76
2022/04/05 02:38:38;;;;;;;27.40;3.08;;;;;;;3.06;100.00;99810.63;4934586;28;20125;-76
2022/04/05 02:41:07;;;;;;;22.45;3.47;;;;;;;3.07;100.00;99813.09;4930036;28;20037;-76
2022/04/05 02:43:37;;;;;;;17.42;2.60;;;;;;;2.99;100.00;99817.22;4950317;28;20039;-75
2022/04/05 02:46:05;;;;;;;13.35;2.22;;;;;;;3.05;100.00;99827.09;4934321;28;20057;-76
2022/04/05 02:48:32;;;;;;;20.77;2.95;;;;;;;3.04;100.00;99843.59;4928892;28;20038;-77
2022/04/05 02:51:00;;;;;;;34.78;3.15;;;;;;;3.03;100.00;99834.16;4966957;28;20570;-76
2022/04/05 02:53:26;;;;;;;28.98;3.47;;;;;;;3.08;100.00;99835.44;4956032;28;20046;-76
2022/04/05 02:55:52;;;;;;;30.98;3.47;;;;;;;3.08;100.00;99840.63;4972406;28;20041;-78
2022/04/05 02:58:18;;;;;;;21.60;3.00;;;;;;;2.99;100.00;99856.06;4986246;28;20042;-77
2022/04/05 03:00:47;;;;;;;18.75;2.22;;;;;;;2.83;100.00;99848.69;4938965;28;20065;-76
2022/04/05 03:03:15;;;;;;;17.73;2.17;;;;;;;2.66;100.00;99850.78;4955620;28;20050;-77
2022/04/05 03:05:48;;;;;;;20.45;2.72;;;;;;;2.58;100.00;99850.56;4954888;28;20121;-77
2022/04/05 03:08:13;;;;;;;22.77;3.10;;;;;;;2.61;100.00;99852.09;4952828;28;20073;-77
2022/04/05 03:10:40;;;;;;;22.60;2.85;;;;;;;2.62;100.00;99854.56;4954182;28;20046;-76
2022/04/05 03:13:07;;;;;;;16.02;3.25;;;;;;;2.69;100.00;99850.56;4937444;28;20122;-76
2022/04/05 03:15:34;;;;;;;19.13;4.10;;;;;;;2.73;100.00;99859.75;4938488;28;20519;-76
2022/04/05 03:18:02;;;;;;;25.00;4.63;;;;;;;2.61;100.00;99849.50;4942068;28;20046;-77
2022/04/05 03:20:31;;;;;;;25.77;3.67;;;;;;;2.62;100.00;99856.31;4969025;28;20504;-77
2022/04/05 03:23:00;;;;;;;24.20;2.92;;;;;;;2.70;100.00;99859.97;4963750;28;20046;-77
2022/04/05 03:25:27;;;;;;;16.02;2.60;;;;;;;2.51;100.00;99852.78;4951324;28;20122;-76
2022/04/05 03:27:54;;;;;;;24.35;2.08;;;;;;;2.55;100.00;99862.91;4945676;28;20034;-77
2022/04/05 03:30:23;;;;;;;13.88;2.15;;;;;;;2.57;100.00;99863.63;4953792;28;20047;-77
2022/04/05 03:32:49;;;;;;;29.02;2.90;;;;;;;2.67;100.00;99877.50;4973409;28;20049;-76
2022/04/05 03:35:16;;;;;;;14.95;2.33;;;;;;;2.58;100.00;99867.84;4968348;28;20123;-76
2022/04/05 03:37:43;;;;;;;17.73;2.40;;;;;;;2.58;100.00;99868.69;4943055;28;20042;-76
2022/04/05 03:40:12;;;;;;;15.38;2.03;;;;;;;2.45;100.00;99892.09;4968719;28;20089;-77
2022/04/05 03:42:38;;;;;;;16.52;2.03;;;;;;;2.34;100.00;99881.72;4959499;28;20449;-76
2022/04/05 03:45:06;;;;;;;22.90;2.78;;;;;;;2.37;100.00;99893.59;4952223;28;20045;-77
2022/04/05 03:47:31;;;;;;;16.90;2.25;;;;;;;2.33;100.00;99895.56;4944880;28;20039;-75
2022/04/05 03:49:58;;;;;;;20.50;2.08;;;;;;;2.28;100.00;99892.50;4952707;28;20030;-75
2022/04/05 03:52:24;;;;;;;14.32;1.63;;;;;;;2.36;100.00;99887.59;4936440;28;20043;-77
2022/04/05 03:54:51;;;;;;;18.85;2.25;;;;;;;2.34;100.00;99890.28;4955174;28;20397;-77
2022/04/05 03:57:20;;;;;;;19.02;1.50;;;;;;;2.19;100.00;99896.59;4935458;28;20055;-80
2022/04/05 03:59:48;;;;;;;18.48;1.67;;;;;;;2.28;100.00;99890.75;4952731;28;20579;-77
2022/04/05 04:02:14;;;;;;;17.58;1.77;;;;;;;2.32;100.00;99899.13;4954151;28;20121;-75
2022/04/05 04:04:41;;;;;;;11.30;1.83;;;;;;;2.25;100.00;99898.72;4948040;28;20042;-76
2022/04/05 04:07:07;;;;;;;14.50;1.85;;;;;;;2.18;100.00;99896.72;4954818;28;20045;-77
2022/04/05 04:09:33;;;;;;;20.10;1.90;;;;;;;2.14;100.00;99899.50;4950967;28;20092;-76
2022/04/05 04:12:00;;;;;;;16.52;2.10;;;;;;;2.19;100.00;99906.13;4945889;28;20043;-75
2022/04/05 04:14:27;;;;;;;20.05;2.42;;;;;;;2.23;100.00;99903.19;4936586;28;20133;-75
2022/04/05 04:16:55;;;;;;;19.33;1.80;;;;;;;2.44;100.00;99912.91;4952966;28;20038;-76
2022/04/05 04:19:21;;;;;;;17.55;2.05;;;;;;;2.30;100.00;99904.41;4936345;28;20759;-75
2022/04/05 04:21:46;;;;;;;11.32;1.98;;;;;;;2.42;100.00;99912.19;4952383;28;20117;-76
2022/04/05 04:24:12;;;;;;;15.30;1.83;;;;;;;2.30;100.00;99912.16;4950565;28;20030;-76
2022/04/05 04:26:38;;;;;;;19.70;2.85;;;;;;;2.24;100.00;99922.13;4967118;28;20412;-76
2022/04/05 04:29:04;;;;;;;22.20;2.65;;;;;;;2.25;100.00;99924.63;4936880;28;20039;-76
2022/04/05 04:31:31;;;;;;;13.40;1.70;;;;;;;2.30;100.00;99922.50;4968105;28;20057;-77
2022/04/05 04:33:57;;;;;;;16.48;2.40;;;;;;;2.31;100.00;99926.75;4968977;28;20034;-76
2022/04/05 04:36:23;;;;;;;16.27;2.15;;;;;;;2.28;100.00;99926.97;4953490;28;20031;-76
2022/04/05 04:38:49;;;;;;;19.90;2.30;;;;;;;2.17;100.00;99928.69;4961870;28;20034;-76
2022/04/05 04:41:15;;;;;;;16.50;2.17;;;;;;;2.01;100.00;99921.22;4960402;28;20070;-77
2022/04/05 04:43:41;;;;;;;17.15;2.40;;;;;;;2.02;100.00;99930.66;4969450;28;20070;-76
2022/04/05 04:46:06;;;;;;;23.92;2.67;;;;;;;2.09;100.00;99932.69;4954892;28;20077;-76
2022/04/05 04:48:32;;;;;;;22.33;2.53;;;;;;;2.21;100.00;99943.88;4943745;28;20042;-76
2022/04/05 04:50:58;;;;;;;13.70;2.15;;;;;;;2.06;100.00;99948.41;4935992;28;20035;-76
2022/04/05 04:53:24;;;;;;;17.20;2.80;;;;;;;2.07;100.00;99954.41;4951258;28;20042;-75
2022/04/05 04:55:50;;;;;;;19.45;2.10;;;;;;;2.12;100.00;99960.09;4972117;28;20391;-76
2022/04/05 04:58:15;;;;;;;16.48;2.03;;;;;;;2.08;100.00;99958.66;4951835;28;20495;-76
2022/04/05 05:00:41;;;;;;;21.45;2.65;;;;;;;2.18;100.00;99964.81;4968502;28;20049;-77
2022/04/05 05:03:07;;;;;;;19.30;2.08;;;;;;;2.20;100.00;99967.28;4938948;28;20106;-76
2022/04/05 05:05:32;;;;;;;18.13;2.28;;;;;;;2.16;100.00;99966.69;4966983;28;20046;-76
2022/04/05 05:07:58;;;;;;;17.48;2.47;;;;;;;2.04;100.00;99970.19;4940322;28;20050;-76
2022/04/05 05:10:24;;;;;;;20.45;2.70;;;;;;;2.06;100.00;99976.88;4935050;28;20503;-76
2022/04/05 05:12:49;;;;;;;23.85;3.00;;;;;;;2.04;100.00;99970.19;4956079;28;20552;-76
2022/04/05 05:15:18;;;;;;;24.20;2.47;;;;;;;2.05;100.00;99976.97;4935237;28;20416;-76
2022/04/05 05:17:46;;;;;;;28.40;2.92;;;;;;;2.23;100.00;99975.66;4967852;28;20046;-76
2022/04/05 05:20:13;;;;;;;14.65;2.08;;;;;;;2.40;100.00;99989.13;4921725;28;20147;-76
2022/04/05 05:22:39;;;;;;;24.88;3.35;;;;;;;2.37;100.00;99976.41;4957997;28;20423;-76
2022/04/05 05:25:07;;;;;;;19.52;2.72;;;;;;;2.45;100.00;99987.84;4934656;28;20058;-76
2022/04/05 05:27:33;;;;;;;14.63;2.60;;;;;;;2.42;100.00;99971.72;4945095;28;20046;-76
2022/04/05 05:30:00;;;;;;;14.35;2.22;;;;;;;2.59;100.00;99993.78;4967291;28;20045;-77
2022/04/05 05:32:26;;;;;;;29.58;3.20;;;;;;;2.72;100.00;99990.16;4950922;28;20042;-77
2022/04/05 05:34:52;;;;;;;18.85;3.10;;;;;;;2.67;100.00;100002.63;4958035;28;20041;-77
2022/04/05 05:37:18;;;;;;;18.17;2.58;;;;;;;2.62;100.00;100003.91;4964880;28;20046;-76
2022/04/05 05:39:43;;;;;;;21.25;2.88;;;;;;;2.72;100.00;100016.06;4967337;28;20555;-78
2022/04/05 05:42:09;;;;;;;18.20;2.40;;;;;;;2.75;100.00;100006.41;4968008;28;20132;-77
2022/04/05 05:44:35;;;;;;;18.38;2.33;;;;;;;2.83;100.00;100001.50;4965471;28;20580;-77
2022/04/05 05:47:03;;;;;;;15.63;1.88;;;;;;;2.73;100.00;100016.88;4938331;29;20122;-78
2022/04/05 05:49:29;;;;;;;14.77;1.50;;;;;;;2.77;100.00;100020.06;4962702;28;20041;-77
2022/04/05 05:51:55;;;;;;;10.32;2.10;;;;;;;2.71;100.00;100011.84;4945778;28;20039;-76
2022/04/05 05:54:21;;;;;;;13.27;1.70;;;;;;;2.66;100.00;100029.47;4944022;28;20634;-77
2022/04/05 05:56:47;;;;;;;16.75;1.92;;;;;;;2.75;100.00;100022.78;4939875;29;20066;-78
2022/04/05 05:59:13;;;;;;;11.60;1.63;;;;;;;2.78;100.00;100032.91;4958770;28;20039;-77
2022/04/05 06:01:41;;;;;;;16.48;2.25;;;;;;;2.82;100.00;100028.31;4973599;28;20062;-78
2022/04/05 06:04:07;;;;;;;19.25;2.25;;;;;;;2.80;100.00;100025.03;4969825;28;20801;-76
2022/04/05 06:06:32;;;;;;;11.32;2.00;;;;;;;2.84;100.00;100040.22;4942520;28;20089;-78
2022/04/05 06:08:59;;;;;;;15.80;2.30;;;;;;;2.96;100.00;100035.91;4943816;28;20046;-77
2022/04/05 06:11:25;;;;;;;11.98;2.00;;;;;;;3.00;100.00;100037.31;4947279;28;20408;-77
2022/04/05 06:13:51;;;;;;;16.85;2.63;;;;;;;3.20;100.00;100042.75;4941378;28;20051;-77
2022/04/05 06:16:18;;;;;;;18.70;3.10;;;;;;;3.28;100.00;100048.19;4958898;28;20042;-78
2022/04/05 06:18:47;;;;;;;14.70;2.70;;;;;;;3.36;100.00;100053.63;4957428;28;20133;-78
2022/04/05 06:21:17;;;;;;;24.10;2.70;;;;;;;3.44;100.00;100047.84;4959124;28;20101;-78
2022/04/05 06:23:43;;;;;;;17.73;2.17;;;;;;;3.56;100.00;100061.63;4946586;28;20552;-76
2022/04/05 06:26:08;;;;;;;13.02;2.05;;;;;;;3.72;100.00;100053.50;4972173;28;20038;-78
2022/04/05 06:28:34;;;;;;;14.95;1.67;;;;;;;3.84;100.00;100055.13;4944280;28;20141;-76
2022/04/05 06:31:00;;;;;;;16.17;2.65;;;;;;;3.86;100.00;100061.88;4958237;28;20043;-78
2022/04/05 06:33:26;;;;;;;14.70;1.88;;;;;;;3.98;100.00;100072.22;4955683;28;20047;-77
2022/04/05 06:35:56;;;;;;;13.75;2.25;;;;;;;3.95;100.00;100070.69;4939648;28;20045;-76
2022/04/05 06:38:23;;;;;;;14.75;2.17;;;;;;;4.09;100.00;100072.22;4971737;28;20050;-77
2022/04/05 06:40:49;;;;;;;19.02;2.10;;;;;;;4.08;100.00;100073.97;4959863;28;20031;-78
2022/04/05 06:43:19;;;;;;;13.45;1.75;;;;;;;4.45;100.00;100081.44;4936612;28;20097;-77
2022/04/05 06:45:45;;;;;;;17.65;1.77;;;;;;;4.60;100.00;100075.97;4955126;28;20775;-76
2022/04/05 06:48:12;;;;;;;13.32;1.88;;;;;;;4.67;100.00;100084.88;4957829;28;20141;-76
2022/04/05 06:50:38;;;;;;;12.52;1.95;;;;;;;4.59;100.00;100093.28;4967136;28;20126;-77
2022/04/05 06:53:05;;;;;;;12.90;1.63;;;;;;;4.41;100.00;100080.03;4940040;28;20515;-77
2022/04/05 06:55:31;;;;;;;15.55;1.90;;;;;;;4.42;100.00;100099.03;4965928;28;20043;-76
2022/04/05 06:57:57;;;;;;;11.63;2.10;;;;;;;4.52;100.00;100106.91;4956810;28;20142;-77
2022/04/05 07:00:25;;;;;;;16.83;2.22;;;;;;;4.54;100.00;100105.84;4970946;28;20062;-76
2022/04/05 07:02:52;;;;;;;18.50;1.90;;;;;;;4.66;100.00;100104.84;4947096;28;20767;-75
2022/04/05 07:05:18;;;;;;;12.75;1.85;;;;;;;4.66;100.00;100097.06;4961603;28;20054;-74
2022/04/05 07:07:45;;;;;;;16.15;1.73;;;;;;;4.53;100.00;100104.19;4939992;28;20043;-77
2022/04/05 07:10:12;;;;;;;9.63;1.40;;;;;;;4.52;100.00;100109.50;4965966;28;20061;-76
2022/04/05 07:12:38;;;;;;;12.32;1.55;;;;;;;4.59;100.00;100108.06;4950238;28;20066;-77
2022/04/05 07:15:05;;;;;;;16.70;1.92;;;;;;;4.60;100.00;100102.75;4972787;28;20082;-77
2022/04/05 07:17:31;;;;;;;8.27;1.55;;;;;;;4.77;100.00;100105.75;4928624;29;20046;-75
2022/04/05 07:19:57;;;;;;;13.45;1.48;;;;;;;4.63;100.00;100104.25;4962121;28;20046;-77
2022/04/05 07:22:24;;;;;;;11.55;1.50;;;;;;;4.56;100.00;100103.94;4948576;28;20038;-77
2022/04/05 07:24:50;;;;;;;10.48;1.63;;;;;;;4.64;100.00;100117.13;4936533;29;20051;-76
2022/04/05 07:27:15;;;;;;;12.90;1.42;;;;;;;4.63;100.00;100112.91;4939397;28;20417;-77
2022/04/05 07:29:41;;;;;;;11.30;2.38;;;;;;;4.47;100.00;100109.88;4947129;28;20687;-76
2022/04/05 07:32:07;;;;;;;12.55;2.08;;;;;;;4.66;100.00;100102.25;4940078;28;20106;-77
2022/04/05 07:34:33;;;;;;;12.38;1.42;;;;;;;4.76;100.00;100119.69;4954366;28;20074;-78
2022/04/05 07:36:59;;;;;;;7.63;1.30;;;;;;;5.11;100.00;100113.41;4947588;28;20027;-77
2022/04/05 07:39:25;;;;;;;8.52;1.35;;;;;;;5.15;100.00;100118.22;4957127;28;20046;-75
2022/04/05 07:41:51;;;;;;;13.65;1.50;;;;;;;5.25;100.00;100121.72;4940790;28;20417;-77
2022/04/05 07:44:17;;;;;;;13.68;1.88;;;;;;;5.23;100.00;100118.38;4960320;28;20057;-76
2022/04/05 07:46:43;;;;;;;10.35;1.60;;;;;;;5.49;100.00;100127.59;4969578;28;20060;-76
2022/04/05 07:49:09;;;;;;;10.20;1.30;;;;;;;5.57;100.00;100122.56;4977219;28;20495;-76
2022/04/05 07:51:35;;;;;;;11.40;1.77;;;;;;;5.53;100.00;100126.38;4948155;28;20031;-80
2022/04/05 07:54:00;;;;;;;11.60;1.33;;;;;;;5.52;100.00;100119.50;4952518;28;20273;-76
2022/04/05 07:56:26;;;;;;;13.98;1.65;;;;;;;5.68;100.00;100126.84;4943694;28;20165;-76
2022/04/05 07:58:52;;;;;;;12.63;1.70;;;;;;;5.56;100.00;100123.53;4937390;28;20046;-76
2022/04/05 08:01:18;;;;;;;13.02;1.58;;;;;;;5.52;100.00;100128.16;4967510;28;20631;-78
2022/04/05 08:03:44;;;;;;;13.98;1.80;;;;;;;5.63;100.00;100125.47;4969181;28;20042;-77
2022/04/05 08:06:09;;;;;;;11.95;1.70;;;;;;;5.99;100.00;100120.72;4946466;28;20382;-79
2022/04/05 08:08:35;;;;;;;21.90;2.20;;;;;;;6.13;100.00;100127.31;4953463;28;20043;-76
2022/04/05 08:11:01;;;;;;;12.48;1.83;;;;;;;6.32;100.00;100123.94;4960208;28;20058;-76
2022/04/05 08:13:27;;;;;;;12.35;1.92;;;;;;;6.33;100.00;100124.75;4952026;28;20043;-79
2022/04/05 08:15:53;;;;;;;11.13;1.90;;;;;;;6.25;100.00;100117.63;4937012;28;20049;-77
2022/04/05 08:18:20;;;;;;;11.70;1.60;;;;;;;6.00;100.00;100124.13;4953467;28;20100;-77
2022/04/05 08:20:46;;;;;;;10.73;2.08;;;;;;;6.17;100.00;100113.09;4960200;28;20031;-78
2022/04/05 08:23:11;;;;;;;16.98;1.90;;;;;;;6.38;100.00;100125.19;4970122;28;20050;-77
2022/04/05 08:25:37;;;;;;;14.90;2.50;;;;;;;6.52;100.00;100122.22;4964534;28;20039;-76
2022/04/05 08:28:04;;;;;;;10.82;1.50;;;;;;;6.51;100.00;100122.34;4966179;28;20474;-76
2022/04/05 08:30:30;;;;;;;16.08;1.77;;;;;;;6.46;100.00;100125.38;4985458;28;20598;-78
2022/04/05 08:32:56;;;;;;;12.25;2.17;;;;;;;6.60;100.00;100116.31;4949667;28;20031;-76
2022/04/05 08:35:22;;;;;;;10.80;1.33;;;;;;;6.60;100.00;100122.34;4967384;28;20047;-77
2022/04/05 08:37:50;;;;;;;9.05;1.23;;;;;;;6.61;98.14;100118.78;4953916;28;20041;-76
2022/04/05 08:40:18;;;;;;;10.38;1.70;;;;;;;6.54;97.55;100125.50;4938301;28;20078;-77
2022/04/05 08:42:47;;;;;;;8.23;1.50;;;;;;;6.51;93.78;100117.94;4967929;28;20039;-76
2022/04/05 08:45:14;;;;;;;7.07;1.33;;;;;;;6.53;94.58;100110.81;4968845;28;20038;-76
2022/04/05 08:47:44;;;;;;;10.43;1.50;;;;;;;6.54;94.25;100120.28;4970959;28;20041;-78
2022/04/05 08:50:10;;;;;;;7.93;1.40;;;;;;;6.79;94.68;100111.09;4953317;28;20039;-78
2022/04/05 08:52:36;;;;;;;10.20;1.20;;;;;;;7.04;97.90;100111.50;4960695;28;20112;-78
2022/04/05 08:55:02;;;;;;;9.35;1.20;;;;;;;7.14;94.02;100127.13;4967370;28;20043;-79
2022/04/05 08:57:28;;;;;;;8.27;1.00;;;;;;;7.27;90.36;100125.06;4953289;28;20438;-77
2022/04/05 08:59:53;;;;;;;7.60;1.02;;;;;;;7.32;90.40;100124.63;4965741;28;20073;-78
2022/04/05 09:02:27;;;;;;;11.25;1.40;;;;;;;7.40;91.75;100119.53;4951406;28;20035;-76
2022/04/05 09:04:53;;;;;;;8.20;1.10;;;;;;;7.22;92.82;100117.66;4952016;28;20089;-77
2022/04/05 09:07:19;;;;;;;12.65;1.27;;;;;;;7.27;92.54;100114.63;4938202;28;20046;-77
2022/04/05 09:09:45;;;;;;;5.82;1.25;;;;;;;7.43;93.13;100128.88;4968284;28;20046;-78
2022/04/05 09:12:17;;;;;;;8.57;1.17;;;;;;;7.34;94.49;100118.31;4951303;28;20034;-76
2022/04/05 09:14:43;;;;;;;11.05;1.17;;;;;;;7.42;90.57;100125.44;4936273;28;20046;-77
2022/04/05 09:17:12;;;;;;;8.10;1.33;;;;;;;7.32;94.81;100124.63;4968482;28;20063;-78
2022/04/05 09:19:45;;;;;;;9.50;1.30;;;;;;;7.30;99.11;100127.38;4948945;28;20039;-79
2022/04/05 09:22:11;;;;;;;9.32;1.30;;;;;;;7.24;92.18;100124.53;4967768;28;20038;-80
2022/04/05 09:24:39;;;;;;;11.73;1.45;;;;;;;6.90;95.38;100128.41;4953517;28;20042;-78
2022/04/05 09:27:06;;;;;;;7.43;1.23;;;;;;;6.85;96.38;100125.38;4953078;28;20038;-77
2022/04/05 09:29:51;;;;;;;7.88;1.23;;;;;;;6.98;96.59;100125.09;4951596;28;20047;-77
2022/04/05 09:32:33;;;;;;;5.10;1.30;;;;;;;6.98;96.45;100117.28;4967668;28;20042;-77
2022/04/05 09:34:58;;;;;;;8.25;1.20;;;;;;;7.08;97.84;100125.91;4952388;28;20104;-76
2022/04/05 09:37:28;;;;;;;10.75;1.50;;;;;;;6.94;95.20;100126.34;4985185;28;20047;-79
2022/04/05 09:40:35;;;;;;;8.43;1.40;;;;;;;7.20;93.94;100114.38;4966636;28;20046;-78
2022/04/05 09:43:07;;;;;;;14.02;1.55;;;;;;;7.32;90.37;100127.25;4947635;28;20038;-78
2022/04/05 09:45:53;;;;;;;7.78;1.77;;;;;;;7.11;96.37;100128.25;4932804;29;20865;-79
2022/04/05 09:48:21;;;;;;;8.63;1.45;;;;;;;6.55;100.00;100129.72;4968048;28;20062;-79
2022/04/05 09:51:10;;;;;;;14.52;1.42;;;;;;;6.44;100.00;100135.06;4952226;28;20050;-77
2022/04/05 09:53:39;;;;;;;10.88;1.60;;;;;;;5.89;100.00;100137.22;4945912;28;20069;-79
2022/04/05 09:56:18;;;;;;;13.88;1.30;;;;;;;5.87;100.00;100131.31;4949353;28;20089;-77
2022/04/05 09:58:53;;;;;;;8.80;1.50;;;;;;;5.89;100.00;100129.41;4964284;28;20043;-77
2022/04/05 10:01:21;;;;;;;16.00;1.92;;;;;;;5.96;100.00;100117.56;4935336;28;20038;-77
2022/04/05 10:03:57;;;;;;;12.35;1.52;;;;;;;5.79;100.00;100124.16;4966689;28;20048;-77
2022/04/05 10:06:23;;;;;;;16.23;1.50;;;;;;;5.67;100.00;100136.44;4950770;28;20038;-77
2022/04/05 10:08:49;;;;;;;10.45;1.48;;;;;;;5.61;100.00;100129.13;4958443;28;20050;-77
2022/04/05 10:11:15;;;;;;;6.93;1.17;;;;;;;5.49;100.00;100135.38;4949884;28;20738;-77
2022/04/05 10:13:41;;;;;;;7.10;1.50;;;;;;;5.61;100.00;100129.13;4951567;28;20042;-77
2022/04/05 10:16:08;;;;;;;9.88;1.63;;;;;;;5.96;100.00;100114.94;4936836;28;20047;-77
2022/04/05 10:18:35;;;;;;;8.82;2.10;;;;;;;6.09;100.00;100120.75;4949832;28;20062;-77
2022/04/05 10:21:03;;;;;;;13.20;2.00;;;;;;;6.12;100.00;100123.09;4935853;28;20051;-77
2022/04/05 10:23:30;;;;;;;9.70;1.80;;;;;;;6.11;100.00;100128.44;4951391;28;20859;-77
2022/04/05 10:25:57;;;;;;;10.25;1.83;;;;;;;6.02;100.00;100122.22;4951328;28;20149;-78
2022/04/05 10:28:26;;;;;;;12.50;2.13;;;;;;;5.87;100.00;100123.50;4966187;28;20026;-77
2022/04/05 10:31:16;;;;;;;7.45;1.58;;;;;;;5.83;100.00;100128.16;4955670;28;20042;-77
2022/04/05 10:33:59;;;;;;;14.73;1.77;;;;;;;5.65;100.00;100122.72;4946023;28;20125;-77
2022/04/05 10:36:25;;;;;;;11.80;1.92;;;;;;;5.57;100.00;100125.16;4949493;28;20069;-76
2022/04/05 10:39:14;;;;;;;17.42;2.03;;;;;;;5.74;100.00;100134.97;4951370;28;20130;-76
2022/04/05 10:41:39;;;;;;;14.48;2.58;;;;;;;5.71;100.00;100129.19;4965468;28;20055;-76
2022/04/05 10:44:22;;;;;;;16.05;2.08;;;;;;;5.94;100.00;100132.44;4949975;28;20110;-76
2022/04/05 10:46:58;;;;;;;13.30;2.50;;;;;;;6.17;100.00;100133.09;4949917;28;20050;-78
2022/04/05 10:49:40;;;;;;;12.13;1.90;;;;;;;6.11;100.00;100126.63;4966206;28;20043;-79
2022/04/05 10:52:27;;;;;;;8.02;1.98;;;;;;;6.34;100.00;100127.25;4950370;28;20043;-78
2022/04/05 10:55:02;;;;;;;9.35;1.80;;;;;;;6.58;100.00;100136.47;4945238;28;20126;-78
2022/04/05 10:57:34;;;;;;;11.60;1.77;;;;;;;6.55;100.00;100128.91;4967188;28;20043;-77
2022/04/05 11:00:02;;;;;;;7.03;1.43;;;;;;;6.59;100.00;100127.69;4965386;28;20122;-77
2022/04/05 11:02:37;;;;;;;12.02;1.90;;;;;;;6.37;100.00;100132.19;4966667;28;20031;-77
2022/04/05 11:05:24;;;;;;;10.45;1.92;;;;;;;6.45;100.00;100130.69;4949129;28;20129;-76
2022/04/05 11:07:59;;;;;;;8.32;1.63;;;;;;;6.58;100.00;100129.47;4966913;28;20046;-77
2022/04/05 11:10:49;;;;;;;14.00;1.95;;;;;;;6.28;100.00;100124.34;4950283;28;20058;-76
2022/04/05 11:13:21;;;;;;;10.18;1.60;;;;;;;6.15;100.00;100127.19;4951078;28;20046;-77
2022/04/05 11:15:53;;;;;;;14.35;1.70;;;;;;;5.88;100.00;100123.38;4980150;28;20035;-77
2022/04/05 11:18:34;;;;;;;8.73;1.40;;;;;;;6.00;100.00;100132.75;4969605;28;20042;-77
2022/04/05 11:21:01;;;;;;;4.30;1.60;;;;;;;5.89;100.00;100137.22;4948617;28;20571;-77
2022/04/05 11:23:44;;;;;;;10.07;1.50;;;;;;;5.83;100.00;100134.19;4969106;28;20042;-78
2022/04/05 11:26:36;;;;;;;9.52;2.20;;;;;;;5.79;100.00;100137.19;4969705;28;20042;-76